createdAt,value
2022-12-28T00:00:22.196Z,2.34
2022-12-28T00:03:16.112Z,2.40
2022-12-28T00:05:50.740Z,2.40
2022-12-28T00:08:25.041Z,2.40
2022-12-28T00:11:11.329Z,2.36
2022-12-28T00:13:49.937Z,2.30
2022-12-28T00:16:29.978Z,2.30
2022-12-28T00:19:11.060Z,2.20
2022-12-28T00:21:47.318Z,2.12
2022-12-28T00:24:25.612Z,2.04
2022-12-28T00:26:59.771Z,2.00
2022-12-28T00:29:33.573Z,2.00
2022-12-28T00:32:08.234Z,1.90
2022-12-28T00:34:42.108Z,1.82
2022-12-28T00:37:16.133Z,1.80
2022-12-28T00:39:50.117Z,1.70
2022-12-28T00:42:23.888Z,1.66
2022-12-28T00:44:57.671Z,1.60
2022-12-28T00:47:32.310Z,1.60
2022-12-28T00:50:06.995Z,1.50
2022-12-28T00:52:41.026Z,1.48
2022-12-28T00:55:14.919Z,1.40
2022-12-28T00:57:48.619Z,1.30
2022-12-28T01:00:23.241Z,1.30
2022-12-28T01:02:57.423Z,1.26
2022-12-28T01:05:31.768Z,1.20
2022-12-28T01:08:05.979Z,1.12
2022-12-28T01:10:41.523Z,1.10
2022-12-28T01:13:15.353Z,1.10
2022-12-28T01:15:49.338Z,1.10
2022-12-28T01:18:23.382Z,1.10
2022-12-28T01:20:57.248Z,1.10
2022-12-28T01:23:30.992Z,1.10
2022-12-28T01:26:08.271Z,1.00
2022-12-28T01:28:42.157Z,1.00
2022-12-28T01:31:18.696Z,1.10
2022-12-28T01:33:53.705Z,1.10
2022-12-28T01:36:32.642Z,1.10
2022-12-28T01:39:08.923Z,1.10
2022-12-28T01:41:44.983Z,1.10
2022-12-28T01:44:46.193Z,1.10
2022-12-28T01:47:35.546Z,1.20
2022-12-28T01:50:16.477Z,1.20
2022-12-28T01:52:57.095Z,1.20
2022-12-28T01:55:36.166Z,1.20
2022-12-28T01:58:15.375Z,1.20
2022-12-28T02:00:49.149Z,1.20
2022-12-28T02:03:27.285Z,1.20
2022-12-28T02:06:07.205Z,1.24
2022-12-28T02:08:53.675Z,1.20
2022-12-28T02:11:27.653Z,1.20
2022-12-28T02:14:03.004Z,1.20
2022-12-28T02:16:37.090Z,1.20
2022-12-28T02:19:19.708Z,1.20
2022-12-28T02:22:21.522Z,1.30
2022-12-28T02:25:26.548Z,1.30
2022-12-28T02:28:14.143Z,1.30
2022-12-28T02:30:55.957Z,1.30
2022-12-28T02:33:37.512Z,1.30
2022-12-28T02:36:19.091Z,1.32
2022-12-28T02:39:00.337Z,1.40
2022-12-28T02:41:38.120Z,1.40
2022-12-28T02:44:12.294Z,1.40
2022-12-28T02:47:19.137Z,1.40
2022-12-28T02:50:07.852Z,1.40
2022-12-28T02:53:28.709Z,1.40
2022-12-28T02:56:22.750Z,1.50
2022-12-28T02:59:29.919Z,1.50
2022-12-28T03:02:32.823Z,1.60
2022-12-28T03:05:43.244Z,1.60
2022-12-28T03:08:22.115Z,1.60
2022-12-28T03:11:06.032Z,1.60
2022-12-28T03:13:49.721Z,1.60
2022-12-28T03:16:31.623Z,1.50
2022-12-28T03:19:28.224Z,1.52
2022-12-28T03:22:20.217Z,1.50
2022-12-28T03:25:13.037Z,1.50
2022-12-28T03:28:07.371Z,1.50
2022-12-28T03:31:06.457Z,1.42
2022-12-28T03:33:48.660Z,1.46
2022-12-28T03:36:33.529Z,1.50
2022-12-28T03:39:16.211Z,1.50
2022-12-28T03:42:13.573Z,1.50
2022-12-28T03:44:55.568Z,1.50
2022-12-28T03:47:33.341Z,1.50
2022-12-28T03:50:09.137Z,1.52
2022-12-28T03:52:43.424Z,1.60
2022-12-28T03:55:19.076Z,1.60
2022-12-28T03:57:52.821Z,1.66
2022-12-28T04:00:29.326Z,1.68
2022-12-28T04:03:03.101Z,1.70
2022-12-28T04:05:37.001Z,1.70
2022-12-28T04:08:10.702Z,1.76
2022-12-28T04:10:44.241Z,1.80
2022-12-28T04:13:18.295Z,1.80
2022-12-28T04:16:08.488Z,1.80
2022-12-28T04:18:43.565Z,1.80
2022-12-28T04:21:17.873Z,1.80
2022-12-28T04:23:52.069Z,1.86
2022-12-28T04:26:28.770Z,1.90
2022-12-28T04:29:02.621Z,1.90
2022-12-28T04:31:51.540Z,1.90
2022-12-28T04:34:26.923Z,1.88
2022-12-28T04:37:04.495Z,1.90
2022-12-28T04:39:55.610Z,1.90
2022-12-28T04:42:30.790Z,1.90
2022-12-28T04:45:04.572Z,2.00
2022-12-28T04:47:38.428Z,2.00
2022-12-28T04:50:13.062Z,1.98
2022-12-28T04:52:46.951Z,2.00
2022-12-28T04:55:32.679Z,2.00
2022-12-28T04:58:08.163Z,2.00
2022-12-28T05:00:41.876Z,1.98
2022-12-28T05:03:15.472Z,1.90
2022-12-28T05:05:49.337Z,1.88
2022-12-28T05:08:23.207Z,1.84
2022-12-28T05:11:00.165Z,1.88
2022-12-28T05:13:33.893Z,1.90
2022-12-28T05:16:10.705Z,1.86
2022-12-28T05:18:44.580Z,1.80
2022-12-28T05:21:21.349Z,1.80
2022-12-28T05:23:55.431Z,1.80
2022-12-28T05:26:32.140Z,1.80
2022-12-28T05:29:07.117Z,1.80
2022-12-28T05:31:40.763Z,1.80
2022-12-28T05:34:14.344Z,1.86
2022-12-28T05:36:48.147Z,1.80
2022-12-28T05:39:21.679Z,1.80
2022-12-28T05:41:55.302Z,1.70
2022-12-28T05:44:29.034Z,1.70
2022-12-28T05:47:02.960Z,1.68
2022-12-28T05:49:36.713Z,1.60
2022-12-28T05:52:10.477Z,1.60
2022-12-28T05:54:44.377Z,1.60
2022-12-28T05:57:18.352Z,1.50
2022-12-28T05:59:51.899Z,1.50
2022-12-28T06:02:27.756Z,1.50
2022-12-28T06:05:01.760Z,1.50
2022-12-28T06:07:35.423Z,1.50
2022-12-28T06:10:11.387Z,1.46
2022-12-28T06:12:44.937Z,1.44
2022-12-28T06:15:18.970Z,1.40
2022-12-28T06:17:56.699Z,1.42
2022-12-28T06:20:30.347Z,1.42
2022-12-28T06:23:04.022Z,1.44
2022-12-28T06:25:40.054Z,1.46
2022-12-28T06:28:14.175Z,1.46
2022-12-28T06:30:52.491Z,1.46
2022-12-28T06:33:27.361Z,1.50
2022-12-28T06:36:01.735Z,1.50
2022-12-28T06:38:36.402Z,1.50
2022-12-28T06:41:14.860Z,1.50
2022-12-28T06:43:50.172Z,1.50
2022-12-28T06:46:27.090Z,1.50
2022-12-28T06:49:01.474Z,1.50
2022-12-28T06:51:40.707Z,1.50
2022-12-28T06:54:15.316Z,1.60
2022-12-28T06:56:49.011Z,1.60
2022-12-28T06:59:22.787Z,1.68
2022-12-28T07:01:56.846Z,1.80
2022-12-28T07:04:31.269Z,1.80
2022-12-28T07:07:05.323Z,1.90
2022-12-28T07:09:39.039Z,2.00
2022-12-28T07:12:13.061Z,2.00
2022-12-28T07:14:47.138Z,2.10
2022-12-28T07:17:20.815Z,2.20
2022-12-28T07:19:55.717Z,2.20
2022-12-28T07:22:29.633Z,2.28
2022-12-28T07:25:03.568Z,2.30
2022-12-28T07:27:40.754Z,2.40
2022-12-28T07:30:20.281Z,2.50
2022-12-28T07:32:55.221Z,2.56
2022-12-28T07:35:29.675Z,2.60
2022-12-28T07:38:03.362Z,2.70
2022-12-28T07:40:37.231Z,2.70
2022-12-28T07:43:11.685Z,2.74
2022-12-28T07:45:45.424Z,2.80
2022-12-28T07:48:20.003Z,2.90
2022-12-28T07:50:54.746Z,2.90
2022-12-28T07:53:30.728Z,2.90
2022-12-28T07:56:09.701Z,3.00
2022-12-28T08:01:26.137Z,3.20
2022-12-28T08:04:04.179Z,3.22
2022-12-28T08:06:44.172Z,3.30
2022-12-28T08:09:21.726Z,3.30
2022-12-28T08:11:58.785Z,3.34
2022-12-28T08:14:34.701Z,3.40
2022-12-28T08:17:13.755Z,3.44
2022-12-28T08:20:03.801Z,3.50
2022-12-28T08:22:41.085Z,3.60
2022-12-28T08:25:18.707Z,3.70
2022-12-28T08:27:59.916Z,3.70
2022-12-28T08:30:42.737Z,3.74
2022-12-28T08:33:20.090Z,3.80
2022-12-28T08:35:58.745Z,3.90
2022-12-28T08:38:35.862Z,3.90
2022-12-28T08:41:19.680Z,3.96
2022-12-28T08:43:58.804Z,4.00
2022-12-28T08:46:38.785Z,4.10
2022-12-28T08:59:50.842Z,4.68
2022-12-28T09:02:33.103Z,4.70
2022-12-28T09:05:09.084Z,4.80
2022-12-28T09:07:44.331Z,4.90
2022-12-28T09:10:20.940Z,5.00
2022-12-28T09:12:54.796Z,5.10
2022-12-28T09:15:28.567Z,5.12
2022-12-28T09:18:12.832Z,5.20
2022-12-28T09:20:48.111Z,5.20
2022-12-28T09:23:32.513Z,5.26
2022-12-28T09:26:16.379Z,5.30
2022-12-28T09:28:52.691Z,5.30
2022-12-28T09:31:30.737Z,5.40
2022-12-28T09:37:09.691Z,5.48
2022-12-28T09:39:43.638Z,5.50
2022-12-28T09:42:25.459Z,5.60
2022-12-28T09:45:16.849Z,5.68
2022-12-28T09:47:59.027Z,5.70
2022-12-28T09:50:49.418Z,5.80
2022-12-28T09:53:37.265Z,5.90
2022-12-28T09:56:36.561Z,6.00
2022-12-28T09:59:22.969Z,6.10
2022-12-28T10:02:06.769Z,6.30
2022-12-28T10:04:49.014Z,6.30
2022-12-28T10:07:23.910Z,6.32
2022-12-28T10:09:58.059Z,6.40
2022-12-28T10:12:34.331Z,6.44
2022-12-28T10:15:18.255Z,6.42
2022-12-28T10:17:59.785Z,6.50
2022-12-28T10:20:42.383Z,6.50
2022-12-28T10:23:28.812Z,6.50
2022-12-28T10:26:09.108Z,6.60
2022-12-28T10:28:52.529Z,6.70
2022-12-28T10:31:48.608Z,6.80
2022-12-28T10:34:25.262Z,6.90
2022-12-28T10:37:13.917Z,7.00
2022-12-28T10:40:10.215Z,7.10
2022-12-28T10:42:52.192Z,7.20
2022-12-28T10:45:35.076Z,7.32
2022-12-28T10:48:22.865Z,7.50
2022-12-28T10:51:24.740Z,7.58
2022-12-28T10:54:00.974Z,7.60
2022-12-28T10:56:47.438Z,7.60
2022-12-28T10:59:29.952Z,7.60
2022-12-28T11:02:37.938Z,7.60
2022-12-28T11:05:25.465Z,7.60
2022-12-28T11:08:14.682Z,7.60
2022-12-28T11:10:58.020Z,7.60
2022-12-28T11:13:32.309Z,7.58
2022-12-28T11:16:08.216Z,7.70
2022-12-28T11:18:43.241Z,7.80
2022-12-28T11:21:23.572Z,7.78
2022-12-28T11:23:57.759Z,7.70
2022-12-28T11:26:34.141Z,7.70
2022-12-28T11:29:08.663Z,7.70
2022-12-28T11:31:49.177Z,7.80
2022-12-28T11:34:29.251Z,7.90
2022-12-28T11:37:04.067Z,7.94
2022-12-28T11:39:48.893Z,8.00
2022-12-28T11:42:58.486Z,8.02
2022-12-28T11:46:05.093Z,8.10
2022-12-28T11:49:01.897Z,8.20
2022-12-28T11:51:39.347Z,8.20
2022-12-28T11:54:52.658Z,8.20
2022-12-28T11:57:42.667Z,8.20
2022-12-28T12:00:53.845Z,8.20
2022-12-28T12:04:32.214Z,8.20
2022-12-28T12:07:31.235Z,8.18
2022-12-28T12:10:40.103Z,8.20
2022-12-28T12:13:45.486Z,8.30
2022-12-28T12:16:36.055Z,8.40
2022-12-28T12:19:21.996Z,8.42
2022-12-28T12:22:03.775Z,8.40
2022-12-28T12:24:49.658Z,8.40
2022-12-28T12:27:36.756Z,8.40
2022-12-28T12:30:18.760Z,8.40
2022-12-28T12:33:00.875Z,8.50
2022-12-28T12:35:47.995Z,8.50
2022-12-28T12:38:43.986Z,8.50
2022-12-28T12:41:33.385Z,8.52
2022-12-28T12:44:30.199Z,8.60
2022-12-28T12:47:54.748Z,8.70
2022-12-28T12:51:13.802Z,8.80
2022-12-28T12:54:16.677Z,8.90
2022-12-28T12:56:59.462Z,8.98
2022-12-28T13:00:14.123Z,9.00
2022-12-28T13:03:30.366Z,8.94
2022-12-28T13:06:08.686Z,8.90
2022-12-28T13:08:52.323Z,9.00
2022-12-28T13:11:28.602Z,9.10
2022-12-28T13:14:03.500Z,9.20
2022-12-28T13:16:38.367Z,9.30
2022-12-28T13:19:24.822Z,9.30
2022-12-28T13:21:59.903Z,9.22
2022-12-28T13:24:39.649Z,9.20
2022-12-28T13:27:33.755Z,9.10
2022-12-28T13:30:24.022Z,9.00
2022-12-28T13:33:02.093Z,9.00
2022-12-28T13:35:39.523Z,8.90
2022-12-28T13:38:24.541Z,8.90
2022-12-28T13:40:59.439Z,8.90
2022-12-28T13:44:17.555Z,8.90
2022-12-28T13:47:00.479Z,8.90
2022-12-28T13:49:45.351Z,8.90
2022-12-28T13:52:27.278Z,8.90
2022-12-28T13:55:12.342Z,8.98
2022-12-28T13:57:57.328Z,9.00
2022-12-28T14:00:40.230Z,9.00
2022-12-28T14:03:19.692Z,9.00
2022-12-28T14:06:02.234Z,9.00
2022-12-28T14:08:39.923Z,9.00
2022-12-28T14:11:14.558Z,9.00
2022-12-28T14:13:49.612Z,9.00
2022-12-28T14:16:24.634Z,9.00
2022-12-28T14:19:00.508Z,9.00
2022-12-28T14:21:45.289Z,9.00
2022-12-28T14:24:20.127Z,9.00
2022-12-28T14:26:59.619Z,9.00
2022-12-28T14:29:36.333Z,8.90
2022-12-28T14:32:17.323Z,8.90
2022-12-28T14:34:57.090Z,8.90
2022-12-28T14:37:40.320Z,8.90
2022-12-28T14:40:33.610Z,8.90
2022-12-28T14:43:20.525Z,8.90
2022-12-28T14:46:05.124Z,8.80
2022-12-28T14:48:44.999Z,8.80
2022-12-28T14:51:38.543Z,8.80
2022-12-28T14:54:33.618Z,8.70
2022-12-28T14:57:25.069Z,8.76
2022-12-28T15:00:06.800Z,8.70
2022-12-28T15:02:44.788Z,8.70
2022-12-28T15:05:43.583Z,8.70
2022-12-28T15:08:24.814Z,8.62
2022-12-28T15:13:38.800Z,8.62
2022-12-28T15:16:21.119Z,8.62
2022-12-28T15:19:11.498Z,8.60
2022-12-28T15:21:45.484Z,8.60
2022-12-28T15:24:25.274Z,8.60
2022-12-28T15:27:12.247Z,8.60
2022-12-28T15:32:40.465Z,8.60
2022-12-28T15:35:29.816Z,8.60
2022-12-28T15:38:08.351Z,8.60
2022-12-28T15:40:55.514Z,8.60
2022-12-28T15:43:29.808Z,8.60
2022-12-28T15:46:04.304Z,8.60
2022-12-28T15:48:42.731Z,8.60
2022-12-28T15:51:21.489Z,8.60
2022-12-28T15:53:55.634Z,8.60
2022-12-28T15:56:32.797Z,8.60
2022-12-28T15:59:09.722Z,8.60
2022-12-28T16:01:48.275Z,8.60
2022-12-28T16:04:24.695Z,8.58
2022-12-28T16:06:58.596Z,8.60
2022-12-28T16:09:33.159Z,8.56
2022-12-28T16:12:10.924Z,8.50
2022-12-28T16:14:51.011Z,8.50
2022-12-28T16:17:25.531Z,8.50
2022-12-28T16:20:03.356Z,8.50
2022-12-28T16:22:46.167Z,8.50
2022-12-28T16:25:20.531Z,8.50
2022-12-28T16:27:54.798Z,8.50
2022-12-28T16:30:29.426Z,8.50
2022-12-28T16:33:23.260Z,8.50
2022-12-28T16:36:02.281Z,8.50
2022-12-28T16:38:36.868Z,8.50
2022-12-28T16:41:12.797Z,8.50
2022-12-28T16:43:47.733Z,8.50
2022-12-28T16:46:22.391Z,8.50
2022-12-28T16:48:56.551Z,8.50
2022-12-28T16:51:30.597Z,8.50
2022-12-28T16:54:04.476Z,8.50
2022-12-28T16:56:38.719Z,8.50
2022-12-28T16:59:17.254Z,8.50
2022-12-28T17:01:52.158Z,8.50
2022-12-28T17:04:26.613Z,8.58
2022-12-28T17:07:00.461Z,8.50
2022-12-28T17:09:35.334Z,8.50
2022-12-28T17:12:10.213Z,8.50
2022-12-28T17:14:44.701Z,8.50
2022-12-28T17:17:18.861Z,8.56
2022-12-28T17:19:53.066Z,8.58
2022-12-28T17:22:27.471Z,8.56
2022-12-28T17:25:02.197Z,8.54
2022-12-28T17:27:37.824Z,8.52
2022-12-28T17:30:14.500Z,8.60
2022-12-28T17:32:50.194Z,8.60
2022-12-28T17:35:24.451Z,8.60
2022-12-28T17:37:58.535Z,8.60
2022-12-28T17:40:32.489Z,8.60
2022-12-28T17:43:06.320Z,8.60
2022-12-28T17:45:43.411Z,8.60
2022-12-28T17:48:17.472Z,8.62
2022-12-28T17:50:51.965Z,8.60
2022-12-28T17:53:28.124Z,8.60
2022-12-28T17:56:05.908Z,8.62
2022-12-28T17:58:39.983Z,8.66
2022-12-28T18:01:15.176Z,8.70
2022-12-28T18:03:49.188Z,8.70
2022-12-28T18:06:23.510Z,8.70
2022-12-28T18:08:57.523Z,8.70
2022-12-28T18:11:31.725Z,8.70
2022-12-28T18:14:06.314Z,8.70
2022-12-28T18:16:40.566Z,8.74
2022-12-28T18:19:14.767Z,8.80
2022-12-28T18:21:49.026Z,8.80
2022-12-28T18:24:24.312Z,8.80
2022-12-28T18:26:58.813Z,8.80
2022-12-28T18:29:33.132Z,8.90
2022-12-28T18:32:34.221Z,8.90
2022-12-28T18:35:11.944Z,8.98
2022-12-28T18:37:46.197Z,9.00
2022-12-28T18:40:20.556Z,9.00
2022-12-28T18:42:54.584Z,9.00
2022-12-28T18:45:28.604Z,9.06
2022-12-28T18:48:03.250Z,9.10
2022-12-28T18:50:37.196Z,9.12
2022-12-28T18:53:11.148Z,9.20
2022-12-28T18:55:45.708Z,9.20
2022-12-28T18:58:20.397Z,9.20
2022-12-28T19:00:54.268Z,9.20
2022-12-28T19:03:28.413Z,9.20
2022-12-28T19:06:05.852Z,9.20
2022-12-28T19:08:42.119Z,9.28
2022-12-28T19:11:16.052Z,9.22
2022-12-28T19:13:50.100Z,9.20
2022-12-28T19:16:30.580Z,9.28
2022-12-28T19:19:05.571Z,9.30
2022-12-28T19:21:41.697Z,9.30
2022-12-28T19:24:18.458Z,9.30
2022-12-28T19:26:55.883Z,9.30
2022-12-28T19:29:31.443Z,9.30
2022-12-28T19:32:05.522Z,9.30
2022-12-28T19:34:39.775Z,9.38
2022-12-28T19:37:15.986Z,9.34
2022-12-28T19:39:53.493Z,9.30
2022-12-28T19:42:31.663Z,9.30
2022-12-28T19:45:09.867Z,9.30
2022-12-28T19:47:44.202Z,9.30
2022-12-28T19:50:18.519Z,9.24
2022-12-28T19:52:52.820Z,9.20
2022-12-28T19:55:26.683Z,9.20
2022-12-28T19:58:00.839Z,9.20
2022-12-28T20:00:34.800Z,9.10
2022-12-28T20:03:09.333Z,9.10
2022-12-28T20:05:44.275Z,9.06
2022-12-28T20:08:18.706Z,9.00
2022-12-28T20:11:00.486Z,8.94
2022-12-28T20:13:35.198Z,8.90
2022-12-28T20:16:10.653Z,8.90
2022-12-28T20:18:48.800Z,9.00
2022-12-28T20:21:24.591Z,8.98
2022-12-28T20:24:00.762Z,9.00
2022-12-28T20:26:35.117Z,9.00
2022-12-28T20:29:09.335Z,9.00
2022-12-28T20:31:43.561Z,9.00
2022-12-28T20:34:17.748Z,9.00
2022-12-28T20:36:51.681Z,8.90
2022-12-28T20:39:25.461Z,8.90
2022-12-28T20:42:17.187Z,8.90
2022-12-28T20:44:51.525Z,8.90
2022-12-28T20:47:25.403Z,8.86
2022-12-28T20:50:00.198Z,8.80
2022-12-28T20:52:34.331Z,8.70
2022-12-28T20:55:09.871Z,8.68
2022-12-28T20:57:44.418Z,8.60
2022-12-28T21:00:20.258Z,8.60
2022-12-28T21:02:54.317Z,8.60
2022-12-28T21:05:29.156Z,8.60
2022-12-28T21:08:03.370Z,8.60
2022-12-28T21:10:37.562Z,8.60
2022-12-28T21:13:11.581Z,8.60
2022-12-28T21:15:46.001Z,8.60
2022-12-28T21:18:20.430Z,8.60
2022-12-28T21:20:57.872Z,8.60
2022-12-28T21:23:32.571Z,8.54
2022-12-28T21:26:09.029Z,8.50
2022-12-28T21:28:43.910Z,8.50
2022-12-28T21:31:18.877Z,8.50
2022-12-28T21:33:57.281Z,8.50
2022-12-28T21:36:31.595Z,8.50
2022-12-28T21:39:05.620Z,8.52
2022-12-28T21:41:51.873Z,8.60
2022-12-28T21:44:27.274Z,8.60
2022-12-28T21:47:01.089Z,8.60
2022-12-28T21:49:35.211Z,8.60
2022-12-28T21:52:09.253Z,8.60
2022-12-28T21:54:43.452Z,8.60
2022-12-28T21:57:18.256Z,8.58
2022-12-28T22:00:12.054Z,8.50
2022-12-28T22:03:03.222Z,8.50
2022-12-28T22:05:54.595Z,8.40
2022-12-28T22:08:45.972Z,8.40
2022-12-28T22:11:38.187Z,8.34
2022-12-28T22:14:12.253Z,8.28
2022-12-28T22:16:46.145Z,8.20
2022-12-28T22:19:20.138Z,8.20
2022-12-28T22:21:54.527Z,8.20
2022-12-28T22:24:28.758Z,8.20
2022-12-28T22:27:02.552Z,8.20
2022-12-28T22:29:36.942Z,8.20
2022-12-28T22:32:11.092Z,8.20
2022-12-28T22:34:44.947Z,8.20
2022-12-28T22:37:18.824Z,8.20
2022-12-28T22:39:52.563Z,8.30
2022-12-28T22:42:27.084Z,8.30
2022-12-28T22:45:00.849Z,8.30
2022-12-28T22:47:34.651Z,8.30
2022-12-28T22:50:13.143Z,8.30
2022-12-28T22:52:50.157Z,8.30
2022-12-28T22:55:27.150Z,8.30
2022-12-28T22:58:04.125Z,8.30
2022-12-28T23:00:41.157Z,8.30
2022-12-28T23:03:18.516Z,8.30
2022-12-28T23:05:57.123Z,8.30
2022-12-28T23:08:34.142Z,8.20
2022-12-28T23:11:37.133Z,8.20
2022-12-28T23:14:38.490Z,8.20
2022-12-28T23:17:19.177Z,8.10
2022-12-28T23:20:11.952Z,8.10
2022-12-28T23:23:07.137Z,8.00
2022-12-28T23:26:01.311Z,8.00
2022-12-28T23:28:39.348Z,8.00
2022-12-28T23:31:15.160Z,7.90
2022-12-28T23:33:50.354Z,7.90
2022-12-28T23:36:26.143Z,7.80
2022-12-28T23:39:03.134Z,7.70
2022-12-28T23:41:52.099Z,7.70
2022-12-28T23:44:29.135Z,7.70
2022-12-28T23:47:06.121Z,7.70
2022-12-28T23:49:44.122Z,7.70
2022-12-28T23:52:25.620Z,7.62
2022-12-28T23:55:01.170Z,7.70
2022-12-28T23:57:38.392Z,7.70
